Time;durP1;ratioP1;P1;durP2;ratioP2;P2;SDS_P1;SDS_P2;PMS_P1;PMS_P2;Temp;Humidity;BMP_temperature;BMP_pressure;BME280_temperature;BME280_humidity;BME280_pressure;Samples;Min_cycle;Max_cycle;Signal;HPM_P1;HPM_P2
2022/07/18 00:01:04;;;;;;;0.98;0.98;;;25.60;41.90;;;;;;5086032;28;20051;-62
2022/07/18 00:03:32;;;;;;;1.30;1.20;;;25.60;41.90;;;;;;5085520;28;20048;-62
2022/07/18 00:05:59;;;;;;;1.65;1.55;;;25.60;41.90;;;;;;5085426;28;20486;-62
2022/07/18 00:08:26;;;;;;;1.70;1.60;;;25.60;42.00;;;;;;5086083;28;20282;-62
2022/07/18 00:10:53;;;;;;;1.20;1.10;;;25.60;42.00;;;;;;5084262;28;20110;-62
2022/07/18 00:13:21;;;;;;;2.90;1.40;;;25.60;42.00;;;;;;5086109;28;20044;-62
2022/07/18 00:15:49;;;;;;;1.48;1.38;;;25.60;42.00;;;;;;5080816;28;20080;-62
2022/07/18 00:18:16;;;;;;;1.40;1.30;;;25.60;42.10;;;;;;5085571;28;20047;-62
2022/07/18 00:20:43;;;;;;;1.73;1.17;;;25.60;42.10;;;;;;5067709;28;20393;-62
2022/07/18 00:23:10;;;;;;;1.55;1.45;;;25.60;42.10;;;;;;5085402;28;20071;-62
2022/07/18 00:25:38;;;;;;;1.33;1.00;;;25.60;42.10;;;;;;5085458;28;20048;-62
2022/07/18 00:28:05;;;;;;;1.10;1.00;;;25.60;42.20;;;;;;5085069;28;20039;-62
2022/07/18 00:30:32;;;;;;;1.83;1.50;;;25.50;42.10;;;;;;5085076;28;20089;-62
2022/07/18 00:32:59;;;;;;;1.10;1.10;;;25.50;42.10;;;;;;5086049;28;20734;-62
2022/07/18 00:35:26;;;;;;;1.80;1.70;;;25.50;42.10;;;;;;5085090;28;20093;-62
2022/07/18 00:37:53;;;;;;;1.40;1.30;;;25.50;42.20;;;;;;5085644;28;20056;-62
2022/07/18 00:40:21;;;;;;;1.17;1.08;;;25.50;42.20;;;;;;5085400;28;20044;-62
2022/07/18 00:42:48;;;;;;;1.90;1.40;;;25.50;42.20;;;;;;5085696;28;20416;-62
2022/07/18 00:45:15;;;;;;;1.55;1.45;;;25.50;42.20;;;;;;5085274;28;20181;-62
2022/07/18 00:47:43;;;;;;;1.20;1.10;;;25.50;42.30;;;;;;5080391;28;20105;-62
2022/07/18 00:50:10;;;;;;;1.23;1.15;;;25.50;42.30;;;;;;5088593;28;20093;-62
2022/07/18 00:52:38;;;;;;;1.10;1.10;;;25.50;42.30;;;;;;5089309;28;20048;-62
2022/07/18 00:55:06;;;;;;;1.30;1.20;;;25.50;42.30;;;;;;5089460;28;20052;-62
2022/07/18 00:57:34;;;;;;;2.67;1.33;;;25.50;42.30;;;;;;5088913;28;20531;-62
2022/07/18 01:02:50;;;;;;;1.35;1.25;;;25.40;42.30;;;;;;5089361;28;20314;-62
2022/07/18 01:05:17;;;;;;;3.13;1.25;;;25.40;42.30;;;;;;5089440;28;20079;-62
2022/07/18 01:07:45;;;;;;;1.20;1.10;;;25.40;42.40;;;;;;5071227;28;20052;-62
2022/07/18 01:10:12;;;;;;;1.60;1.23;;;25.40;42.40;;;;;;5088735;28;20537;-62
2022/07/18 01:12:39;;;;;;;1.35;1.25;;;25.40;42.40;;;;;;5088981;28;20130;-62
2022/07/18 01:15:07;;;;;;;1.40;1.30;;;25.40;42.40;;;;;;5089181;28;20093;-62
2022/07/18 01:17:34;;;;;;;1.25;1.15;;;25.40;42.40;;;;;;5088753;28;20052;-62
2022/07/18 01:20:04;;;;;;;1.08;1.08;;;25.40;42.40;;;;;;5084338;28;20081;-61
2022/07/18 01:22:31;;;;;;;0.87;0.87;;;25.40;43.00;;;;;;5089045;28;20036;-61
2022/07/18 01:24:59;;;;;;;1.30;1.20;;;25.40;42.50;;;;;;5088732;28;20059;-61
2022/07/18 01:27:26;;;;;;;1.70;1.00;;;25.40;42.50;;;;;;5088863;28;20059;-61
2022/07/18 01:29:54;;;;;;;1.55;1.20;;;25.40;42.50;;;;;;5088641;28;20135;-62
2022/07/18 01:32:22;;;;;;;1.70;1.30;;;25.40;42.50;;;;;;5088558;28;20113;-62
2022/07/18 01:34:50;;;;;;;1.00;1.00;;;25.40;42.50;;;;;;5088705;28;20062;-62
2022/07/18 01:37:18;;;;;;;2.28;1.33;;;25.40;42.50;;;;;;5070441;28;20113;-62
2022/07/18 01:39:45;;;;;;;1.20;1.10;;;25.40;42.50;;;;;;5087059;28;20069;-62
2022/07/18 01:42:14;;;;;;;1.05;1.05;;;25.40;42.50;;;;;;5088247;28;20485;-62
2022/07/18 01:44:42;;;;;;;1.48;1.20;;;25.40;42.50;;;;;;5088518;28;20048;-62
2022/07/18 01:47:10;;;;;;;1.23;1.10;;;25.40;42.50;;;;;;5088179;28;20048;-62
2022/07/18 01:49:38;;;;;;;0.93;0.93;;;25.40;42.50;;;;;;5088215;28;20048;-62
2022/07/18 01:52:06;;;;;;;1.10;1.10;;;25.40;42.50;;;;;;5083840;28;20603;-62
2022/07/18 01:54:35;;;;;;;0.98;0.90;;;25.40;42.60;;;;;;5088042;28;20044;-62
2022/07/18 01:57:04;;;;;;;1.10;1.05;;;25.40;42.60;;;;;;5088185;28;20689;-62
2022/07/18 01:59:31;;;;;;;1.48;1.38;;;25.40;42.60;;;;;;5087333;28;20072;-62
2022/07/18 02:01:59;;;;;;;1.55;1.00;;;25.40;42.60;;;;;;5088232;28;20040;-62
2022/07/18 02:07:13;;;;;;;1.13;1.05;;;25.40;42.60;;;;;;5087832;28;20044;-63
2022/07/18 02:09:40;;;;;;;1.55;1.30;;;25.40;42.70;;;;;;5086975;28;20044;-62
2022/07/18 02:12:07;;;;;;;1.20;1.13;;;25.40;42.70;;;;;;5088432;28;20071;-62
2022/07/18 02:14:34;;;;;;;1.20;1.10;;;25.40;42.70;;;;;;5087845;28;20040;-62
2022/07/18 02:17:02;;;;;;;0.82;0.82;;;25.30;42.60;;;;;;5087653;28;20055;-62
2022/07/18 02:19:29;;;;;;;0.90;0.90;;;25.40;42.70;;;;;;5087684;28;20047;-62
2022/07/18 02:21:56;;;;;;;2.05;0.75;;;25.40;42.80;;;;;;5083129;28;20044;-62
2022/07/18 02:24:23;;;;;;;1.05;1.00;;;25.40;42.80;;;;;;5087987;28;20044;-62
2022/07/18 02:26:51;;;;;;;1.02;1.00;;;25.30;42.70;;;;;;5087796;28;20558;-62
2022/07/18 02:29:18;;;;;;;0.93;0.80;;;25.40;42.80;;;;;;5087608;28;20070;-62
2022/07/18 02:31:45;;;;;;;0.82;0.82;;;25.30;42.70;;;;;;5087441;28;20052;-62
2022/07/18 02:34:14;;;;;;;1.10;0.88;;;25.30;42.70;;;;;;5086146;28;20047;-62
2022/07/18 02:36:42;;;;;;;1.00;1.00;;;25.30;42.80;;;;;;5086191;28;20052;-62
2022/07/18 02:39:09;;;;;;;1.00;1.00;;;25.30;42.80;;;;;;5085875;28;20075;-62
2022/07/18 02:41:37;;;;;;;1.13;1.02;;;25.30;42.80;;;;;;5087329;28;20048;-62
2022/07/18 02:44:04;;;;;;;0.90;0.90;;;25.30;42.80;;;;;;5086486;28;20511;-62
2022/07/18 02:46:31;;;;;;;0.80;0.80;;;25.30;42.80;;;;;;5087697;28;20064;-62
2022/07/18 02:48:59;;;;;;;0.75;0.75;;;25.30;42.90;;;;;;5086846;28;20551;-62
2022/07/18 02:51:26;;;;;;;0.75;0.75;;;25.30;42.90;;;;;;5087362;28;20481;-62
2022/07/18 02:53:54;;;;;;;1.05;0.90;;;25.30;42.90;;;;;;5082924;28;20496;-62
2022/07/18 02:56:21;;;;;;;1.00;0.90;;;25.20;42.80;;;;;;5086974;28;20251;-62
2022/07/18 02:58:48;;;;;;;0.90;0.90;;;25.30;42.90;;;;;;5086607;28;20056;-62
2022/07/18 03:01:15;;;;;;;0.70;0.70;;;25.30;42.90;;;;;;5087536;28;20052;-62
2022/07/18 03:03:43;;;;;;;0.80;0.80;;;25.30;42.90;;;;;;5087299;28;20044;-62
2022/07/18 03:06:10;;;;;;;0.77;0.77;;;25.30;42.90;;;;;;5069265;28;20046;-62
2022/07/18 03:08:37;;;;;;;0.98;0.98;;;25.30;42.90;;;;;;5086551;28;20329;-62
2022/07/18 03:11:04;;;;;;;1.75;0.88;;;25.30;42.90;;;;;;5086486;28;20404;-62
2022/07/18 03:13:32;;;;;;;0.65;0.65;;;25.30;42.90;;;;;;5086405;28;20097;-62
2022/07/18 03:15:59;;;;;;;0.80;0.80;;;25.30;42.90;;;;;;5086664;28;20047;-62
2022/07/18 03:18:27;;;;;;;0.77;0.77;;;25.30;42.90;;;;;;5085414;28;20079;-62
2022/07/18 03:20:54;;;;;;;4.00;1.35;;;25.30;42.90;;;;;;5086951;28;20048;-62
2022/07/18 03:23:21;;;;;;;1.20;1.10;;;25.30;42.90;;;;;;5087098;28;20423;-62
2022/07/18 03:25:48;;;;;;;0.80;0.80;;;25.30;42.90;;;;;;5080425;28;20546;-62
2022/07/18 03:28:15;;;;;;;1.00;0.93;;;25.30;42.90;;;;;;5086522;28;20386;-62
2022/07/18 03:30:43;;;;;;;0.80;0.80;;;25.30;42.90;;;;;;5086634;28;20263;-62
2022/07/18 03:33:10;;;;;;;1.00;0.90;;;25.30;42.90;;;;;;5085168;28;20054;-62
2022/07/18 03:35:37;;;;;;;1.08;1.08;;;25.30;42.90;;;;;;5086195;28;20280;-62
2022/07/18 03:38:05;;;;;;;1.00;1.00;;;25.30;42.90;;;;;;5077067;28;20060;-62
2022/07/18 03:40:32;;;;;;;1.17;1.08;;;25.30;42.80;;;;;;5065383;28;20084;-62
2022/07/18 03:43:00;;;;;;;1.15;0.90;;;25.30;42.80;;;;;;5066039;28;20501;-62
2022/07/18 03:45:27;;;;;;;0.57;0.57;;;25.30;42.80;;;;;;5065970;28;20040;-62
2022/07/18 03:47:55;;;;;;;0.90;0.68;;;25.30;42.80;;;;;;5066059;28;20520;-62
2022/07/18 03:50:22;;;;;;;0.80;0.80;;;25.40;42.80;;;;;;5065484;28;20109;-62
2022/07/18 03:52:49;;;;;;;0.82;0.73;;;25.40;42.80;;;;;;5065749;28;20524;-62
2022/07/18 03:55:16;;;;;;;0.60;0.60;;;25.40;42.80;;;;;;5065922;28;20109;-62
2022/07/18 03:57:44;;;;;;;1.65;1.10;;;25.40;42.80;;;;;;5070545;28;20060;-62
2022/07/18 04:00:12;;;;;;;0.95;0.95;;;25.40;43.30;;;;;;5085799;28;20048;-62
2022/07/18 04:02:42;;;;;;;0.80;0.80;;;25.40;42.70;;;;;;5084310;28;20438;-62
2022/07/18 04:05:10;;;;;;;0.93;0.93;;;25.40;42.70;;;;;;5085637;28;20040;-62
2022/07/18 04:07:37;;;;;;;2.53;0.57;;;25.40;42.70;;;;;;5085885;28;20044;-62
2022/07/18 04:10:07;;;;;;;0.60;0.60;;;25.40;42.70;;;;;;5085452;28;20054;-62
2022/07/18 04:12:34;;;;;;;0.50;0.50;;;25.40;42.60;;;;;;5086313;28;20452;-62
2022/07/18 04:15:03;;;;;;;0.82;0.82;;;25.40;42.60;;;;;;5083914;28;20105;-62
2022/07/18 04:17:30;;;;;;;0.50;0.50;;;25.40;42.60;;;;;;5085552;28;20402;-62
2022/07/18 04:19:57;;;;;;;0.63;0.63;;;25.50;42.60;;;;;;5084191;28;20052;-62
2022/07/18 04:22:24;;;;;;;0.73;0.73;;;25.50;42.50;;;;;;5084333;28;20468;-62
2022/07/18 04:24:52;;;;;;;1.08;0.77;;;25.50;42.50;;;;;;5084258;28;20286;-62
2022/07/18 04:27:19;;;;;;;0.68;0.68;;;25.50;42.40;;;;;;5084088;28;20055;-62
2022/07/18 04:29:46;;;;;;;1.50;0.90;;;25.50;42.40;;;;;;5067154;28;20143;-62
2022/07/18 04:32:13;;;;;;;1.40;0.70;;;25.50;42.30;;;;;;5065723;28;20052;-63
2022/07/18 04:34:41;;;;;;;0.88;0.88;;;25.60;42.30;;;;;;5064519;28;20528;-62
2022/07/18 04:37:09;;;;;;;0.80;0.80;;;25.60;42.30;;;;;;5065738;28;20525;-62
2022/07/18 04:39:36;;;;;;;0.65;0.65;;;25.60;42.70;;;;;;5064897;28;20386;-62
2022/07/18 04:42:03;;;;;;;0.88;0.88;;;25.60;42.10;;;;;;5064089;28;20499;-62
2022/07/18 04:44:30;;;;;;;0.73;0.73;;;25.60;42.10;;;;;;5065243;28;20045;-62
2022/07/18 04:46:58;;;;;;;1.65;0.50;;;25.70;42.00;;;;;;5064963;28;20487;-62
2022/07/18 04:49:25;;;;;;;0.80;0.80;;;25.70;42.00;;;;;;5065172;28;20509;-62
2022/07/18 04:51:52;;;;;;;0.82;0.82;;;25.70;41.90;;;;;;5064759;28;20288;-62
2022/07/18 04:54:19;;;;;;;0.70;0.68;;;25.70;41.90;;;;;;5063894;28;20106;-62
2022/07/18 04:56:46;;;;;;;1.15;0.70;;;25.70;41.80;;;;;;5065532;28;20204;-62
2022/07/18 04:59:14;;;;;;;2.03;0.85;;;25.70;41.80;;;;;;5062321;28;20056;-62
2022/07/18 05:01:41;;;;;;;0.77;0.70;;;25.80;41.80;;;;;;5063607;28;20067;-62
2022/07/18 05:04:09;;;;;;;1.17;1.08;;;25.80;41.80;;;;;;5064286;28;20049;-61
2022/07/18 05:06:37;;;;;;;0.65;0.63;;;25.80;41.70;;;;;;5063391;28;20052;-61
2022/07/18 05:09:04;;;;;;;0.60;0.60;;;25.80;41.60;;;;;;5065108;28;20075;-62
2022/07/18 05:11:31;;;;;;;0.82;0.70;;;25.80;41.60;;;;;;5064460;28;20409;-61
2022/07/18 05:13:58;;;;;;;1.35;0.70;;;25.70;41.50;;;;;;5064813;28;20555;-72
2022/07/18 05:16:26;;;;;;;0.88;0.75;;;25.60;41.60;;;;;;5062918;28;20056;-72
2022/07/18 05:18:53;;;;;;;3.78;1.05;;;25.50;41.10;;;;;;5072303;28;20048;-71
2022/07/18 05:21:20;;;;;;;2.63;1.00;;;25.40;40.80;;;;;;5077019;28;20686;-71
2022/07/18 05:23:47;;;;;;;1.05;0.60;;;25.30;40.70;;;;;;5084164;28;20044;-71
2022/07/18 05:26:14;;;;;;;1.33;0.90;;;25.10;40.70;;;;;;5076482;28;20105;-70
2022/07/18 05:28:42;;;;;;;2.80;0.98;;;24.80;40.80;;;;;;5073910;28;20409;-81
2022/07/18 05:31:09;;;;;;;4.38;0.85;;;24.50;41.10;;;;;;5069881;28;20036;-74
2022/07/18 05:33:36;;;;;;;1.40;1.10;;;24.20;41.70;;;;;;5079873;28;20041;-71
2022/07/18 05:36:04;;;;;;;0.90;0.90;;;23.80;42.50;;;;;;5079094;28;20044;-74
2022/07/18 05:38:32;;;;;;;3.08;1.10;;;23.40;42.60;;;;;;5077414;28;20056;-72
2022/07/18 05:40:59;;;;;;;3.30;1.45;;;23.00;43.40;;;;;;5074978;28;20045;-73
2022/07/18 05:43:27;;;;;;;1.58;0.95;;;22.60;43.70;;;;;;5073079;28;20595;-74
2022/07/18 05:45:54;;;;;;;1.60;1.00;;;22.30;44.00;;;;;;5078712;28;20047;-73
2022/07/18 05:48:22;;;;;;;3.35;1.55;;;22.00;44.40;;;;;;5070527;28;20162;-74
2022/07/18 05:50:49;;;;;;;2.53;1.75;;;21.70;45.10;;;;;;5070212;28;20055;-77
2022/07/18 05:53:17;;;;;;;2.40;1.00;;;21.40;46.40;;;;;;5079544;28;20083;-75
2022/07/18 05:55:44;;;;;;;6.70;1.70;;;21.20;47.30;;;;;;5077974;28;20052;-74
2022/07/18 05:58:11;;;;;;;1.40;1.25;;;21.10;47.00;;;;;;5074048;28;20055;-71
2022/07/18 06:00:38;;;;;;;3.08;1.15;;;21.00;46.90;;;;;;5079969;28;20103;-73
2022/07/18 06:03:06;;;;;;;2.45;1.35;;;20.90;46.90;;;;;;5071344;28;21527;-70
2022/07/18 06:05:33;;;;;;;3.20;1.55;;;20.90;46.80;;;;;;5076256;28;20046;-72
2022/07/18 06:08:01;;;;;;;3.78;1.23;;;20.80;46.90;;;;;;5076256;28;20066;-74
2022/07/18 06:10:28;;;;;;;10.50;3.45;;;20.60;47.30;;;;;;5078847;28;20053;-76
2022/07/18 06:12:56;;;;;;;16.15;3.45;;;20.40;48.00;;;;;;5076458;28;20726;-69
2022/07/18 06:15:24;;;;;;;8.27;2.10;;;20.20;49.00;;;;;;5075428;28;20093;-69
2022/07/18 06:17:52;;;;;;;5.85;1.63;;;20.10;48.80;;;;;;5074876;28;20044;-70
2022/07/18 06:20:20;;;;;;;5.22;2.05;;;19.90;49.60;;;;;;5074878;28;20056;-68
2022/07/18 06:22:47;;;;;;;4.07;1.42;;;19.80;50.10;;;;;;5077927;28;20080;-66
2022/07/18 06:25:14;;;;;;;4.13;1.75;;;19.90;50.70;;;;;;5073200;28;20060;-68
2022/07/18 06:27:42;;;;;;;3.38;1.70;;;20.10;50.40;;;;;;5075911;28;20044;-68
2022/07/18 06:30:10;;;;;;;5.78;2.17;;;20.20;49.90;;;;;;5080439;28;20212;-72
2022/07/18 06:32:39;;;;;;;3.70;2.40;;;20.30;49.30;;;;;;5085058;28;20068;-72
2022/07/18 06:35:07;;;;;;;6.10;2.55;;;20.60;48.10;;;;;;5076199;28;20097;-72
2022/07/18 06:37:35;;;;;;;11.32;2.75;;;20.70;47.20;;;;;;5082671;28;20082;-67
2022/07/18 06:40:03;;;;;;;7.80;2.45;;;20.80;46.90;;;;;;5085053;28;20048;-67
2022/07/18 06:42:30;;;;;;;6.15;2.42;;;20.80;46.80;;;;;;5083255;28;20052;-60
2022/07/18 06:44:57;;;;;;;7.72;2.78;;;20.90;46.60;;;;;;5082247;28;20062;-61
2022/07/18 06:47:25;;;;;;;4.40;2.20;;;20.80;47.00;;;;;;5079655;28;20102;-60
2022/07/18 06:49:52;;;;;;;5.05;2.33;;;20.60;47.50;;;;;;5079939;28;20048;-60
2022/07/18 06:52:20;;;;;;;5.68;2.15;;;20.50;48.10;;;;;;5072648;28;20048;-62
2022/07/18 06:54:47;;;;;;;6.88;2.72;;;20.40;48.60;;;;;;5077458;28;20081;-62
2022/07/18 06:57:15;;;;;;;4.43;2.30;;;20.40;48.80;;;;;;5073225;28;20047;-62
2022/07/18 06:59:43;;;;;;;4.30;2.22;;;20.30;49.10;;;;;;5071106;28;20055;-62
2022/07/18 07:02:16;;;;;;;4.25;2.08;;;20.30;49.20;;;;;;5080667;28;20227;-61
2022/07/18 07:04:43;;;;;;;3.67;1.90;;;20.20;49.50;;;;;;5073301;28;20048;-61
2022/07/18 07:07:11;;;;;;;4.20;1.67;;;20.10;50.00;;;;;;5077360;28;20054;-63
2022/07/18 07:09:38;;;;;;;3.20;1.85;;;20.10;50.00;;;;;;5076201;28;20048;-62
2022/07/18 07:12:06;;;;;;;3.55;1.95;;;20.10;49.90;;;;;;5078271;28;20059;-63
2022/07/18 07:14:33;;;;;;;5.60;1.75;;;20.10;50.00;;;;;;5078084;28;20480;-64
2022/07/18 07:17:00;;;;;;;4.65;1.80;;;20.10;49.90;;;;;;5081856;28;20052;-63
2022/07/18 07:19:27;;;;;;;4.22;1.67;;;20.10;49.80;;;;;;5074247;28;20538;-63
2022/07/18 07:21:55;;;;;;;2.03;1.20;;;20.10;49.80;;;;;;5080866;28;20067;-61
2022/07/18 07:24:23;;;;;;;2.75;1.50;;;20.10;49.80;;;;;;5075937;28;20050;-61
2022/07/18 07:26:50;;;;;;;3.78;1.40;;;20.10;49.80;;;;;;5077246;28;20488;-62
2022/07/18 07:29:22;;;;;;;5.05;1.45;;;20.20;49.80;;;;;;5072596;28;20048;-60
2022/07/18 07:31:49;;;;;;;2.13;1.35;;;20.20;50.30;;;;;;5077904;28;20040;-61
2022/07/18 07:34:17;;;;;;;4.07;2.38;;;20.20;50.30;;;;;;5077932;28;20062;-61
2022/07/18 07:36:44;;;;;;;2.10;1.02;;;20.20;50.20;;;;;;5076112;28;20075;-61
2022/07/18 07:39:11;;;;;;;7.00;1.50;;;20.30;50.30;;;;;;5071318;28;20082;-61
2022/07/18 07:41:39;;;;;;;2.53;1.08;;;20.30;50.10;;;;;;5080299;28;20047;-62
2022/07/18 07:44:06;;;;;;;2.97;1.20;;;20.30;50.10;;;;;;5071831;28;20147;-62
2022/07/18 07:46:33;;;;;;;4.22;1.35;;;20.30;49.90;;;;;;5074167;28;21548;-61
2022/07/18 07:49:01;;;;;;;2.95;1.50;;;20.40;50.00;;;;;;5074132;28;20073;-63
2022/07/18 07:51:28;;;;;;;2.80;1.70;;;20.40;49.90;;;;;;5079528;28;20051;-61
2022/07/18 07:54:02;;;;;;;2.70;1.27;;;20.40;49.80;;;;;;5071877;28;20052;-61
2022/07/18 07:56:29;;;;;;;1.67;0.98;;;20.40;49.80;;;;;;5072856;28;20048;-61
2022/07/18 07:58:57;;;;;;;2.22;1.65;;;20.50;49.90;;;;;;5074622;28;20749;-62
2022/07/18 08:01:24;;;;;;;2.00;1.25;;;20.50;49.90;;;;;;5074620;28;20032;-61
2022/07/18 08:03:52;;;;;;;2.42;1.30;;;20.50;50.00;;;;;;5076836;28;20139;-61
2022/07/18 08:06:20;;;;;;;3.65;1.58;;;20.40;50.00;;;;;;5075969;28;20040;-61
2022/07/18 08:08:47;;;;;;;3.38;1.10;;;20.50;50.10;;;;;;5071198;28;20055;-62
2022/07/18 08:11:14;;;;;;;3.60;1.33;;;20.50;50.10;;;;;;5075357;28;20071;-61
2022/07/18 08:13:42;;;;;;;2.15;1.13;;;20.60;50.00;;;;;;5082192;28;20041;-62
2022/07/18 08:16:09;;;;;;;2.10;1.13;;;20.60;50.00;;;;;;5074341;28;20048;-62
2022/07/18 08:18:37;;;;;;;4.60;0.82;;;20.60;50.00;;;;;;5076533;28;20047;-63
2022/07/18 08:21:04;;;;;;;2.60;1.10;;;20.60;50.00;;;;;;5078030;28;20040;-62
2022/07/18 08:23:31;;;;;;;4.38;1.10;;;20.60;49.80;;;;;;5077427;28;20044;-62
2022/07/18 08:25:58;;;;;;;3.85;1.02;;;20.60;49.80;;;;;;5071327;28;20176;-62
2022/07/18 08:28:27;;;;;;;3.50;1.00;;;20.60;49.60;;;;;;5076327;28;20052;-62
2022/07/18 08:30:54;;;;;;;2.28;1.00;;;20.60;49.60;;;;;;5075523;28;20050;-61
2022/07/18 08:33:21;;;;;;;3.17;1.55;;;20.70;49.80;;;;;;5081696;28;20122;-61
2022/07/18 08:35:49;;;;;;;2.42;1.08;;;20.60;49.50;;;;;;5076530;28;20415;-60
2022/07/18 08:38:16;;;;;;;2.13;1.08;;;20.60;49.50;;;;;;5080899;28;20051;-61
2022/07/18 08:40:47;;;;;;;4.38;1.20;;;20.60;49.50;;;;;;5069883;28;20044;-61
2022/07/18 08:43:15;;;;;;;2.97;1.20;;;20.60;49.40;;;;;;5074083;28;20055;-62
2022/07/18 08:45:51;;;;;;;1.73;0.90;;;20.70;49.40;;;;;;5079516;28;20067;-62
2022/07/18 08:48:18;;;;;;;0.82;0.80;;;20.60;49.30;;;;;;5080425;28;20221;-61
2022/07/18 08:50:47;;;;;;;4.75;1.10;;;20.70;49.30;;;;;;5082710;28;20098;-61
2022/07/18 08:53:16;;;;;;;2.15;0.80;;;20.70;49.10;;;;;;5077423;28;20526;-63
2022/07/18 08:55:44;;;;;;;5.93;1.45;;;20.70;49.10;;;;;;5077441;28;20040;-61
2022/07/18 08:58:14;;;;;;;2.92;1.23;;;20.70;49.20;;;;;;5077485;28;20504;-61
2022/07/18 09:01:02;;;;;;;2.63;0.90;;;20.70;49.20;;;;;;5081666;28;20131;-62
2022/07/18 09:03:29;;;;;;;3.05;0.80;;;20.80;49.20;;;;;;5075920;28;20086;-62
2022/07/18 09:06:09;;;;;;;1.85;0.85;;;20.80;49.20;;;;;;5080290;28;20055;-61
2022/07/18 09:08:59;;;;;;;2.40;1.00;;;20.80;49.20;;;;;;5077778;28;20040;-61
2022/07/18 09:11:27;;;;;;;2.78;0.65;;;20.80;49.10;;;;;;5081333;28;20051;-63
2022/07/18 09:14:35;;;;;;;2.38;0.85;;;20.80;49.10;;;;;;5081346;28;20485;-62
2022/07/18 09:17:19;;;;;;;3.08;0.90;;;20.80;49.00;;;;;;5084857;28;20053;-62
2022/07/18 09:20:11;;;;;;;2.55;0.95;;;20.80;49.10;;;;;;5079482;28;20060;-62
2022/07/18 09:22:43;;;;;;;1.35;0.90;;;20.80;49.00;;;;;;5077728;28;20044;-61
2022/07/18 09:25:13;;;;;;;1.63;1.35;;;20.80;49.00;;;;;;5083090;28;20130;-61
2022/07/18 09:27:46;;;;;;;1.83;0.77;;;20.80;49.00;;;;;;5081244;28;20052;-61
2022/07/18 09:30:29;;;;;;;9.50;0.73;;;20.80;49.00;;;;;;5081518;28;20097;-61
2022/07/18 09:33:10;;;;;;;0.60;0.60;;;20.80;48.90;;;;;;5078103;28;20052;-62
2022/07/18 09:35:46;;;;;;;1.23;0.90;;;20.90;49.00;;;;;;5078066;28;20454;-62
2022/07/18 09:38:16;;;;;;;2.90;0.60;;;20.90;48.90;;;;;;5077252;28;20875;-60
2022/07/18 09:40:49;;;;;;;1.88;0.70;;;20.90;49.00;;;;;;5081171;28;20048;-59
2022/07/18 09:43:20;;;;;;;0.68;0.60;;;20.90;49.00;;;;;;5077441;28;20051;-60
2022/07/18 09:45:50;;;;;;;1.38;1.00;;;20.90;49.20;;;;;;5079197;28;20048;-62
2022/07/18 09:48:19;;;;;;;1.42;0.60;;;20.90;49.20;;;;;;5077377;28;20087;-61
2022/07/18 09:51:01;;;;;;;2.25;0.60;;;20.90;50.00;;;;;;5079768;28;20052;-60
2022/07/18 09:53:35;;;;;;;0.80;0.60;;;20.90;50.10;;;;;;5064657;28;20569;-61
2022/07/18 09:56:06;;;;;;;1.15;0.80;;;20.90;49.90;;;;;;5083477;28;20044;-61
2022/07/18 09:58:36;;;;;;;3.58;0.82;;;20.90;49.90;;;;;;5083991;28;20140;-65
2022/07/18 10:01:07;;;;;;;2.15;0.60;;;20.90;49.90;;;;;;5081909;28;20113;-63
2022/07/18 10:03:36;;;;;;;2.35;0.80;;;20.80;49.40;;;;;;5081193;28;20454;-62
2022/07/18 10:06:04;;;;;;;0.40;0.40;;;20.90;49.20;;;;;;5080417;28;20433;-62
2022/07/18 10:08:33;;;;;;;2.55;0.80;;;20.90;49.00;;;;;;5082956;28;20047;-62
2022/07/18 10:11:03;;;;;;;0.73;0.50;;;20.90;48.90;;;;;;5083807;28;20043;-61
2022/07/18 10:13:32;;;;;;;3.10;0.82;;;20.90;48.80;;;;;;5080963;28;20470;-62
2022/07/18 10:16:01;;;;;;;2.90;0.75;;;20.90;48.70;;;;;;5077694;28;20169;-61
2022/07/18 10:18:30;;;;;;;0.65;0.38;;;20.90;48.60;;;;;;5080188;28;20036;-62
2022/07/18 10:21:10;;;;;;;3.47;0.90;;;20.90;48.60;;;;;;5083734;28;20550;-63
2022/07/18 10:23:42;;;;;;;4.03;0.73;;;20.90;48.40;;;;;;5085346;28;20097;-61
2022/07/18 10:26:22;;;;;;;1.10;0.63;;;20.90;48.60;;;;;;5083731;28;20293;-62
2022/07/18 10:29:09;;;;;;;1.80;0.80;;;20.80;48.40;;;;;;5081789;28;20052;-62
2022/07/18 10:31:58;;;;;;;1.25;0.50;;;20.80;48.30;;;;;;5084859;28;20459;-62
2022/07/18 10:34:35;;;;;;;1.60;0.63;;;20.80;48.30;;;;;;5081261;28;20078;-63
2022/07/18 10:37:10;;;;;;;3.70;0.63;;;20.80;48.20;;;;;;5080078;28;20097;-63
2022/07/18 10:39:42;;;;;;;1.10;0.93;;;20.80;48.00;;;;;;5080482;28;20499;-63
2022/07/18 10:42:14;;;;;;;1.00;0.50;;;20.70;47.80;;;;;;5078483;28;20253;-63
2022/07/18 10:44:43;;;;;;;0.40;0.30;;;20.70;47.70;;;;;;5085704;28;20488;-63
2022/07/18 10:47:20;;;;;;;0.30;0.30;;;20.60;47.60;;;;;;5081162;28;20036;-63
2022/07/18 10:50:08;;;;;;;0.90;0.60;;;20.60;48.10;;;;;;5082484;28;20051;-61
2022/07/18 10:52:56;;;;;;;5.22;0.80;;;20.50;47.60;;;;;;5077061;28;20105;-62
2022/07/18 10:55:28;;;;;;;0.75;0.45;;;20.50;47.90;;;;;;5076419;28;20484;-61
2022/07/18 10:58:15;;;;;;;4.25;1.20;;;20.50;48.10;;;;;;5072683;28;20489;-63
2022/07/18 11:00:46;;;;;;;0.70;0.50;;;20.50;48.50;;;;;;5075653;28;20048;-62
2022/07/18 11:03:15;;;;;;;1.40;0.50;;;20.50;48.50;;;;;;5080049;28;20397;-64
2022/07/18 11:05:48;;;;;;;0.70;0.70;;;20.50;48.60;;;;;;5083189;28;20435;-64
2022/07/18 11:08:20;;;;;;;1.70;0.50;;;20.50;48.70;;;;;;5082465;28;20044;-67
2022/07/18 11:11:08;;;;;;;0.55;0.50;;;20.50;48.70;;;;;;5082260;28;20047;-65
2022/07/18 11:13:48;;;;;;;2.03;0.68;;;20.50;48.70;;;;;;5080923;28;20051;-66
2022/07/18 11:16:24;;;;;;;1.95;0.57;;;20.50;48.80;;;;;;5083238;28;20071;-66
2022/07/18 11:19:16;;;;;;;2.50;0.70;;;20.50;48.90;;;;;;5078159;28;20056;-66
2022/07/18 11:21:44;;;;;;;0.85;0.60;;;20.50;48.80;;;;;;5083985;28;20075;-65
2022/07/18 11:24:13;;;;;;;1.15;1.00;;;20.50;48.80;;;;;;5075839;28;20052;-67
2022/07/18 11:26:47;;;;;;;0.95;0.80;;;20.40;48.80;;;;;;5077949;28;20059;-67
2022/07/18 11:29:20;;;;;;;0.85;0.68;;;20.40;48.80;;;;;;5078941;28;20054;-66
2022/07/18 11:31:56;;;;;;;1.10;0.73;;;20.40;48.90;;;;;;5082982;28;20052;-66
2022/07/18 11:34:25;;;;;;;1.40;0.50;;;20.50;49.10;;;;;;5085340;28;20060;-66
2022/07/18 11:37:13;;;;;;;2.55;0.50;;;20.40;49.00;;;;;;5073246;28;20048;-62
2022/07/18 11:39:40;;;;;;;0.50;0.30;;;20.40;48.90;;;;;;5077576;28;20048;-61
2022/07/18 11:42:09;;;;;;;0.75;0.50;;;20.50;49.10;;;;;;5077048;28;20487;-61
2022/07/18 11:44:39;;;;;;;0.60;0.60;;;20.50;49.00;;;;;;5079475;28;20416;-62
2022/07/18 11:47:09;;;;;;;2.22;0.55;;;20.50;48.90;;;;;;5077462;28;20047;-62
2022/07/18 11:49:37;;;;;;;0.90;0.55;;;20.50;48.80;;;;;;5080418;28;20044;-61
2022/07/18 11:52:05;;;;;;;0.40;0.40;;;20.60;48.80;;;;;;5077990;28;20044;-61
2022/07/18 11:54:34;;;;;;;0.52;0.52;;;20.60;48.90;;;;;;5077724;28;20044;-61
2022/07/18 11:57:01;;;;;;;0.40;0.40;;;20.60;48.70;;;;;;5076990;28;20048;-62
2022/07/18 11:59:37;;;;;;;0.60;0.60;;;20.70;48.70;;;;;;5078878;28;20051;-62
2022/07/18 12:02:05;;;;;;;0.73;0.73;;;20.70;48.80;;;;;;5075493;28;20065;-62
2022/07/18 12:04:33;;;;;;;1.88;0.75;;;20.70;48.90;;;;;;5076145;28;20573;-61
2022/07/18 12:07:22;;;;;;;1.40;1.02;;;20.80;48.70;;;;;;5083224;28;20550;-61
2022/07/18 12:09:51;;;;;;;1.90;0.55;;;20.80;48.60;;;;;;5077283;28;20052;-63
2022/07/18 12:12:20;;;;;;;1.73;1.00;;;20.90;48.60;;;;;;5079947;28;20037;-62
2022/07/18 12:15:04;;;;;;;1.27;0.65;;;20.90;48.60;;;;;;5076071;28;20044;-74
2022/07/18 12:17:47;;;;;;;1.05;0.70;;;20.90;49.20;;;;;;5086238;28;20563;-63
2022/07/18 12:20:19;;;;;;;2.20;0.60;;;20.90;48.50;;;;;;5081209;28;20047;-62
2022/07/18 12:23:14;;;;;;;0.60;0.60;;;21.00;48.30;;;;;;5079043;28;20055;-63
2022/07/18 12:25:44;;;;;;;0.60;0.50;;;21.00;48.20;;;;;;5078044;28;20109;-63
2022/07/18 12:28:18;;;;;;;0.50;0.50;;;21.00;47.80;;;;;;5082247;28;20523;-62
2022/07/18 12:30:45;;;;;;;1.08;0.47;;;20.90;47.80;;;;;;5074799;28;20109;-62
2022/07/18 12:33:13;;;;;;;2.65;0.60;;;20.90;47.90;;;;;;5081222;28;20115;-61
2022/07/18 12:35:41;;;;;;;4.20;0.68;;;20.90;47.90;;;;;;5076599;28;20188;-62
2022/07/18 12:38:14;;;;;;;1.30;0.65;;;20.90;48.00;;;;;;5082148;28;20040;-61
2022/07/18 12:41:00;;;;;;;1.75;0.40;;;20.90;48.10;;;;;;5078487;28;20044;-63
2022/07/18 12:43:33;;;;;;;1.42;0.90;;;21.00;48.20;;;;;;5079394;28;20507;-62
2022/07/18 12:46:02;;;;;;;0.38;0.32;;;20.90;48.70;;;;;;5080146;28;20728;-62
2022/07/18 12:48:31;;;;;;;3.38;0.60;;;20.90;49.10;;;;;;5080007;28;20048;-62
2022/07/18 12:51:04;;;;;;;3.47;0.90;;;21.00;48.90;;;;;;5077240;28;20072;-63
2022/07/18 12:53:34;;;;;;;2.08;0.50;;;20.90;48.70;;;;;;5080556;28;20404;-62
2022/07/18 12:56:02;;;;;;;1.15;0.65;;;20.90;48.30;;;;;;5075198;28;20052;-61
2022/07/18 12:58:29;;;;;;;0.98;0.60;;;20.90;48.10;;;;;;5082090;28;20496;-63
2022/07/18 13:00:57;;;;;;;2.92;1.00;;;20.90;48.00;;;;;;5077690;28;20056;-63
2022/07/18 13:03:33;;;;;;;0.60;0.57;;;20.90;47.90;;;;;;5081410;28;20040;-64